sensor_id;sensor_type;location;lat;lon;timestamp;P1;durP1;ratioP1;P2;durP2;ratioP2
35026;SDS011;60696;51.426;6.934;2022-11-15T00:01:33;8.45;;;5.43;;
35026;SDS011;60696;51.426;6.934;2022-11-15T00:03:59;10.82;;;6.22;;
35026;SDS011;60696;51.426;6.934;2022-11-15T00:06:24;10.23;;;6.90;;
35026;SDS011;60696;51.426;6.934;2022-11-15T00:08:50;13.60;;;7.57;;
35026;SDS011;60696;51.426;6.934;2022-11-15T00:11:16;10.98;;;6.78;;
35026;SDS011;60696;51.426;6.934;2022-11-15T00:13:41;12.40;;;6.88;;
35026;SDS011;60696;51.426;6.934;2022-11-15T00:16:08;9.93;;;6.97;;
35026;SDS011;60696;51.426;6.934;2022-11-15T00:18:34;13.48;;;7.38;;
35026;SDS011;60696;51.426;6.934;2022-11-15T00:21:18;12.10;;;7.22;;
35026;SDS011;60696;51.426;6.934;2022-11-15T00:23:43;12.57;;;7.82;;
35026;SDS011;60696;51.426;6.934;2022-11-15T00:26:13;12.43;;;7.75;;
35026;SDS011;60696;51.426;6.934;2022-11-15T00:28:40;8.73;;;5.85;;
35026;SDS011;60696;51.426;6.934;2022-11-15T00:31:07;11.60;;;7.07;;
35026;SDS011;60696;51.426;6.934;2022-11-15T00:33:36;9.85;;;6.72;;
35026;SDS011;60696;51.426;6.934;2022-11-15T00:36:02;13.40;;;7.85;;
35026;SDS011;60696;51.426;6.934;2022-11-15T00:38:30;11.32;;;6.97;;
35026;SDS011;60696;51.426;6.934;2022-11-15T00:41:00;12.20;;;7.20;;
35026;SDS011;60696;51.426;6.934;2022-11-15T00:43:26;10.48;;;6.85;;
35026;SDS011;60696;51.426;6.934;2022-11-15T00:45:52;12.85;;;6.80;;
35026;SDS011;60696;51.426;6.934;2022-11-15T00:48:18;10.63;;;6.60;;
35026;SDS011;60696;51.426;6.934;2022-11-15T00:50:43;13.57;;;6.93;;
35026;SDS011;60696;51.426;6.934;2022-11-15T00:53:09;10.45;;;6.38;;
35026;SDS011;60696;51.426;6.934;2022-11-15T00:55:35;9.13;;;5.53;;
35026;SDS011;60696;51.426;6.934;2022-11-15T00:58:00;11.10;;;6.43;;
35026;SDS011;60696;51.426;6.934;2022-11-15T01:00:26;11.75;;;6.13;;
35026;SDS011;60696;51.426;6.934;2022-11-15T01:02:52;14.77;;;6.78;;
35026;SDS011;60696;51.426;6.934;2022-11-15T01:05:18;11.32;;;5.55;;
35026;SDS011;60696;51.426;6.934;2022-11-15T01:07:43;8.30;;;5.60;;
35026;SDS011;60696;51.426;6.934;2022-11-15T01:10:09;9.63;;;6.15;;
35026;SDS011;60696;51.426;6.934;2022-11-15T01:12:34;6.53;;;5.38;;
35026;SDS011;60696;51.426;6.934;2022-11-15T01:15:00;12.63;;;5.95;;
35026;SDS011;60696;51.426;6.934;2022-11-15T01:17:25;7.38;;;5.75;;
35026;SDS011;60696;51.426;6.934;2022-11-15T01:19:51;10.25;;;5.28;;
35026;SDS011;60696;51.426;6.934;2022-11-15T01:22:17;6.97;;;5.32;;
35026;SDS011;60696;51.426;6.934;2022-11-15T01:24:43;8.10;;;5.38;;
35026;SDS011;60696;51.426;6.934;2022-11-15T01:27:08;7.05;;;5.30;;
35026;SDS011;60696;51.426;6.934;2022-11-15T01:29:34;7.65;;;5.07;;
35026;SDS011;60696;51.426;6.934;2022-11-15T01:32:00;10.05;;;5.15;;
35026;SDS011;60696;51.426;6.934;2022-11-15T01:34:26;7.57;;;5.40;;
35026;SDS011;60696;51.426;6.934;2022-11-15T01:36:51;9.15;;;5.10;;
35026;SDS011;60696;51.426;6.934;2022-11-15T01:39:17;12.25;;;5.70;;
35026;SDS011;60696;51.426;6.934;2022-11-15T01:41:43;8.00;;;5.40;;
35026;SDS011;60696;51.426;6.934;2022-11-15T01:46:56;9.15;;;5.25;;
35026;SDS011;60696;51.426;6.934;2022-11-15T01:49:24;7.68;;;4.70;;
35026;SDS011;60696;51.426;6.934;2022-11-15T01:51:51;8.10;;;5.40;;
35026;SDS011;60696;51.426;6.934;2022-11-15T01:54:19;10.05;;;5.13;;
35026;SDS011;60696;51.426;6.934;2022-11-15T01:56:49;8.30;;;5.45;;
35026;SDS011;60696;51.426;6.934;2022-11-15T01:59:21;7.70;;;5.22;;
35026;SDS011;60696;51.426;6.934;2022-11-15T02:01:47;6.30;;;4.50;;
35026;SDS011;60696;51.426;6.934;2022-11-15T02:04:15;9.50;;;5.07;;
35026;SDS011;60696;51.426;6.934;2022-11-15T02:06:43;7.70;;;5.15;;
35026;SDS011;60696;51.426;6.934;2022-11-15T02:09:10;14.65;;;4.85;;
35026;SDS011;60696;51.426;6.934;2022-11-15T02:11:37;10.07;;;5.85;;
35026;SDS011;60696;51.426;6.934;2022-11-15T02:14:02;7.05;;;5.45;;
35026;SDS011;60696;51.426;6.934;2022-11-15T02:16:40;9.93;;;5.30;;
35026;SDS011;60696;51.426;6.934;2022-11-15T02:22:22;12.13;;;5.38;;
35026;SDS011;60696;51.426;6.934;2022-11-15T02:33:05;7.32;;;4.70;;
35026;SDS011;60696;51.426;6.934;2022-11-15T02:35:48;6.57;;;4.65;;
35026;SDS011;60696;51.426;6.934;2022-11-15T02:41:27;8.77;;;5.60;;
35026;SDS011;60696;51.426;6.934;2022-11-15T02:44:04;11.45;;;5.63;;
35026;SDS011;60696;51.426;6.934;2022-11-15T02:46:48;9.93;;;5.85;;
35026;SDS011;60696;51.426;6.934;2022-11-15T02:49:34;10.18;;;5.55;;
35026;SDS011;60696;51.426;6.934;2022-11-15T02:52:00;9.48;;;5.30;;
35026;SDS011;60696;51.426;6.934;2022-11-15T02:54:28;8.95;;;5.63;;
35026;SDS011;60696;51.426;6.934;2022-11-15T02:56:58;9.70;;;4.95;;
35026;SDS011;60696;51.426;6.934;2022-11-15T02:59:49;9.00;;;5.38;;
35026;SDS011;60696;51.426;6.934;2022-11-15T03:02:36;10.15;;;6.05;;
35026;SDS011;60696;51.426;6.934;2022-11-15T03:05:19;10.73;;;5.50;;
35026;SDS011;60696;51.426;6.934;2022-11-15T03:10:40;9.93;;;5.78;;
35026;SDS011;60696;51.426;6.934;2022-11-15T03:16:30;8.57;;;5.15;;
35026;SDS011;60696;51.426;6.934;2022-11-15T03:18:43;9.23;;;5.65;;
35026;SDS011;60696;51.426;6.934;2022-11-15T03:21:12;13.97;;;6.17;;
35026;SDS011;60696;51.426;6.934;2022-11-15T03:23:40;8.63;;;5.95;;
35026;SDS011;60696;51.426;6.934;2022-11-15T03:26:08;9.35;;;6.25;;
35026;SDS011;60696;51.426;6.934;2022-11-15T03:28:38;10.02;;;6.13;;
35026;SDS011;60696;51.426;6.934;2022-11-15T03:31:31;7.88;;;5.57;;
35026;SDS011;60696;51.426;6.934;2022-11-15T03:34:22;8.95;;;5.18;;
35026;SDS011;60696;51.426;6.934;2022-11-15T03:36:55;7.80;;;5.15;;
35026;SDS011;60696;51.426;6.934;2022-11-15T03:39:21;8.25;;;5.05;;
35026;SDS011;60696;51.426;6.934;2022-11-15T03:41:51;8.23;;;5.13;;
35026;SDS011;60696;51.426;6.934;2022-11-15T03:47:07;8.02;;;5.30;;
35026;SDS011;60696;51.426;6.934;2022-11-15T03:49:44;9.30;;;4.80;;
35026;SDS011;60696;51.426;6.934;2022-11-15T03:52:16;6.45;;;5.20;;
35026;SDS011;60696;51.426;6.934;2022-11-15T03:54:53;6.43;;;4.82;;
35026;SDS011;60696;51.426;6.934;2022-11-15T03:57:20;7.88;;;4.75;;
35026;SDS011;60696;51.426;6.934;2022-11-15T03:59:46;8.15;;;4.50;;
35026;SDS011;60696;51.426;6.934;2022-11-15T04:02:11;7.22;;;4.18;;
35026;SDS011;60696;51.426;6.934;2022-11-15T04:04:37;6.30;;;3.90;;
35026;SDS011;60696;51.426;6.934;2022-11-15T04:07:03;5.63;;;4.55;;
35026;SDS011;60696;51.426;6.934;2022-11-15T04:09:29;6.57;;;4.38;;
35026;SDS011;60696;51.426;6.934;2022-11-15T04:11:54;6.72;;;4.82;;
35026;SDS011;60696;51.426;6.934;2022-11-15T04:14:20;7.28;;;4.38;;
35026;SDS011;60696;51.426;6.934;2022-11-15T04:16:45;6.40;;;4.07;;
35026;SDS011;60696;51.426;6.934;2022-11-15T04:19:11;5.50;;;4.53;;
35026;SDS011;60696;51.426;6.934;2022-11-15T04:21:55;7.30;;;4.97;;
35026;SDS011;60696;51.426;6.934;2022-11-15T04:24:39;6.85;;;5.20;;
35026;SDS011;60696;51.426;6.934;2022-11-15T04:27:05;7.57;;;5.05;;
35026;SDS011;60696;51.426;6.934;2022-11-15T04:29:30;7.63;;;5.13;;
35026;SDS011;60696;51.426;6.934;2022-11-15T04:31:59;9.38;;;4.72;;
35026;SDS011;60696;51.426;6.934;2022-11-15T04:34:34;5.60;;;4.28;;
35026;SDS011;60696;51.426;6.934;2022-11-15T04:37:00;9.30;;;4.68;;
35026;SDS011;60696;51.426;6.934;2022-11-15T04:39:38;6.82;;;4.53;;
35026;SDS011;60696;51.426;6.934;2022-11-15T04:42:07;6.93;;;4.72;;
35026;SDS011;60696;51.426;6.934;2022-11-15T04:44:33;7.68;;;4.53;;
35026;SDS011;60696;51.426;6.934;2022-11-15T04:46:59;6.10;;;4.90;;
35026;SDS011;60696;51.426;6.934;2022-11-15T04:49:25;7.07;;;4.35;;
35026;SDS011;60696;51.426;6.934;2022-11-15T04:51:50;5.28;;;4.07;;
35026;SDS011;60696;51.426;6.934;2022-11-15T04:54:16;7.82;;;4.72;;
35026;SDS011;60696;51.426;6.934;2022-11-15T04:56:42;6.75;;;4.63;;
35026;SDS011;60696;51.426;6.934;2022-11-15T04:59:07;6.05;;;3.95;;
35026;SDS011;60696;51.426;6.934;2022-11-15T05:01:33;5.57;;;4.47;;
35026;SDS011;60696;51.426;6.934;2022-11-15T05:03:59;6.28;;;4.72;;
35026;SDS011;60696;51.426;6.934;2022-11-15T05:06:43;7.35;;;4.38;;
35026;SDS011;60696;51.426;6.934;2022-11-15T05:09:08;6.30;;;4.25;;
35026;SDS011;60696;51.426;6.934;2022-11-15T05:11:34;7.63;;;4.20;;
35026;SDS011;60696;51.426;6.934;2022-11-15T05:14:00;6.50;;;4.40;;
35026;SDS011;60696;51.426;6.934;2022-11-15T05:16:25;6.28;;;4.32;;
35026;SDS011;60696;51.426;6.934;2022-11-15T05:18:52;6.25;;;4.70;;
35026;SDS011;60696;51.426;6.934;2022-11-15T05:21:19;7.78;;;5.40;;
35026;SDS011;60696;51.426;6.934;2022-11-15T05:23:46;6.57;;;5.10;;
35026;SDS011;60696;51.426;6.934;2022-11-15T05:26:11;13.93;;;5.38;;
35026;SDS011;60696;51.426;6.934;2022-11-15T05:28:37;6.50;;;5.30;;
35026;SDS011;60696;51.426;6.934;2022-11-15T05:31:10;6.65;;;5.35;;
35026;SDS011;60696;51.426;6.934;2022-11-15T05:33:38;10.48;;;5.68;;
35026;SDS011;60696;51.426;6.934;2022-11-15T05:36:06;6.82;;;5.53;;
35026;SDS011;60696;51.426;6.934;2022-11-15T05:38:42;6.93;;;5.60;;
35026;SDS011;60696;51.426;6.934;2022-11-15T05:41:08;7.65;;;5.90;;
35026;SDS011;60696;51.426;6.934;2022-11-15T05:43:35;7.65;;;6.32;;
35026;SDS011;60696;51.426;6.934;2022-11-15T05:46:03;7.40;;;6.10;;
35026;SDS011;60696;51.426;6.934;2022-11-15T05:48:29;9.55;;;5.93;;
35026;SDS011;60696;51.426;6.934;2022-11-15T05:50:56;6.80;;;5.65;;
35026;SDS011;60696;51.426;6.934;2022-11-15T05:53:22;7.85;;;6.40;;
35026;SDS011;60696;51.426;6.934;2022-11-15T05:55:50;9.20;;;6.30;;
35026;SDS011;60696;51.426;6.934;2022-11-15T05:58:16;9.95;;;6.20;;
35026;SDS011;60696;51.426;6.934;2022-11-15T06:00:43;10.10;;;6.72;;
35026;SDS011;60696;51.426;6.934;2022-11-15T06:03:09;9.95;;;6.00;;
35026;SDS011;60696;51.426;6.934;2022-11-15T06:05:35;8.82;;;5.82;;
35026;SDS011;60696;51.426;6.934;2022-11-15T06:08:00;7.38;;;6.53;;
35026;SDS011;60696;51.426;6.934;2022-11-15T06:10:26;10.25;;;6.63;;
35026;SDS011;60696;51.426;6.934;2022-11-15T06:12:58;7.68;;;6.05;;
35026;SDS011;60696;51.426;6.934;2022-11-15T06:15:28;9.35;;;6.32;;
35026;SDS011;60696;51.426;6.934;2022-11-15T06:17:57;6.78;;;5.93;;
35026;SDS011;60696;51.426;6.934;2022-11-15T06:20:23;8.35;;;6.82;;
35026;SDS011;60696;51.426;6.934;2022-11-15T06:22:49;7.95;;;6.00;;
35026;SDS011;60696;51.426;6.934;2022-11-15T06:25:15;8.85;;;5.90;;
35026;SDS011;60696;51.426;6.934;2022-11-15T06:27:40;8.18;;;5.60;;
35026;SDS011;60696;51.426;6.934;2022-11-15T06:30:06;6.65;;;5.82;;
35026;SDS011;60696;51.426;6.934;2022-11-15T06:32:32;7.22;;;4.85;;
35026;SDS011;60696;51.426;6.934;2022-11-15T06:34:57;7.07;;;4.82;;
35026;SDS011;60696;51.426;6.934;2022-11-15T06:37:23;5.63;;;4.30;;
35026;SDS011;60696;51.426;6.934;2022-11-15T06:39:49;6.25;;;4.22;;
35026;SDS011;60696;51.426;6.934;2022-11-15T06:42:14;5.47;;;3.88;;
35026;SDS011;60696;51.426;6.934;2022-11-15T06:44:40;5.38;;;3.97;;
35026;SDS011;60696;51.426;6.934;2022-11-15T06:47:05;9.13;;;3.70;;
35026;SDS011;60696;51.426;6.934;2022-11-15T06:49:31;5.32;;;3.60;;
35026;SDS011;60696;51.426;6.934;2022-11-15T06:51:56;6.00;;;3.63;;
35026;SDS011;60696;51.426;6.934;2022-11-15T06:54:22;4.25;;;3.10;;
35026;SDS011;60696;51.426;6.934;2022-11-15T06:56:47;5.50;;;3.50;;
35026;SDS011;60696;51.426;6.934;2022-11-15T06:59:13;4.00;;;3.42;;
35026;SDS011;60696;51.426;6.934;2022-11-15T07:01:39;5.68;;;3.00;;
35026;SDS011;60696;51.426;6.934;2022-11-15T07:04:04;4.63;;;3.03;;
35026;SDS011;60696;51.426;6.934;2022-11-15T07:06:30;3.22;;;2.70;;
35026;SDS011;60696;51.426;6.934;2022-11-15T07:08:56;3.42;;;2.70;;
35026;SDS011;60696;51.426;6.934;2022-11-15T07:11:21;3.40;;;2.65;;
35026;SDS011;60696;51.426;6.934;2022-11-15T07:13:47;3.10;;;2.60;;
35026;SDS011;60696;51.426;6.934;2022-11-15T07:16:12;2.42;;;2.22;;
35026;SDS011;60696;51.426;6.934;2022-11-15T07:18:39;4.55;;;2.45;;
35026;SDS011;60696;51.426;6.934;2022-11-15T07:21:06;4.95;;;2.10;;
35026;SDS011;60696;51.426;6.934;2022-11-15T07:23:35;2.75;;;2.03;;
35026;SDS011;60696;51.426;6.934;2022-11-15T07:26:03;2.92;;;1.90;;
35026;SDS011;60696;51.426;6.934;2022-11-15T07:28:28;2.97;;;2.17;;
35026;SDS011;60696;51.426;6.934;2022-11-15T07:30:54;2.80;;;2.05;;
35026;SDS011;60696;51.426;6.934;2022-11-15T07:33:20;2.28;;;2.08;;
35026;SDS011;60696;51.426;6.934;2022-11-15T07:35:46;2.38;;;1.73;;
35026;SDS011;60696;51.426;6.934;2022-11-15T07:38:14;2.40;;;1.60;;
35026;SDS011;60696;51.426;6.934;2022-11-15T07:40:44;2.28;;;1.67;;
35026;SDS011;60696;51.426;6.934;2022-11-15T07:43:10;2.65;;;1.52;;
35026;SDS011;60696;51.426;6.934;2022-11-15T07:45:39;2.00;;;1.52;;
35026;SDS011;60696;51.426;6.934;2022-11-15T07:48:06;3.08;;;1.83;;
35026;SDS011;60696;51.426;6.934;2022-11-15T07:50:32;2.78;;;1.67;;
35026;SDS011;60696;51.426;6.934;2022-11-15T07:52:58;2.53;;;1.58;;
35026;SDS011;60696;51.426;6.934;2022-11-15T07:55:25;1.67;;;1.50;;
35026;SDS011;60696;51.426;6.934;2022-11-15T07:57:52;6.18;;;1.63;;
35026;SDS011;60696;51.426;6.934;2022-11-15T08:00:24;2.63;;;1.75;;
35026;SDS011;60696;51.426;6.934;2022-11-15T08:02:50;2.85;;;1.52;;
35026;SDS011;60696;51.426;6.934;2022-11-15T08:05:15;5.15;;;1.70;;
35026;SDS011;60696;51.426;6.934;2022-11-15T08:07:41;1.85;;;1.50;;
35026;SDS011;60696;51.426;6.934;2022-11-15T08:10:07;2.83;;;1.38;;
35026;SDS011;60696;51.426;6.934;2022-11-15T08:12:33;1.95;;;1.40;;
35026;SDS011;60696;51.426;6.934;2022-11-15T08:14:59;2.17;;;1.55;;
35026;SDS011;60696;51.426;6.934;2022-11-15T08:17:24;2.97;;;1.60;;
35026;SDS011;60696;51.426;6.934;2022-11-15T08:19:50;2.10;;;1.60;;
35026;SDS011;60696;51.426;6.934;2022-11-15T08:22:16;3.67;;;1.73;;
35026;SDS011;60696;51.426;6.934;2022-11-15T08:24:42;3.15;;;1.80;;
35026;SDS011;60696;51.426;6.934;2022-11-15T08:27:09;2.13;;;1.70;;
35026;SDS011;60696;51.426;6.934;2022-11-15T08:29:40;1.85;;;1.27;;
35026;SDS011;60696;51.426;6.934;2022-11-15T08:32:07;2.35;;;1.40;;
35026;SDS011;60696;51.426;6.934;2022-11-15T08:34:32;1.75;;;1.35;;
35026;SDS011;60696;51.426;6.934;2022-11-15T08:36:58;2.13;;;1.70;;
35026;SDS011;60696;51.426;6.934;2022-11-15T08:39:24;1.92;;;1.65;;
35026;SDS011;60696;51.426;6.934;2022-11-15T08:41:49;2.25;;;1.77;;
35026;SDS011;60696;51.426;6.934;2022-11-15T08:44:15;3.95;;;2.03;;
35026;SDS011;60696;51.426;6.934;2022-11-15T08:46:40;3.65;;;2.10;;
35026;SDS011;60696;51.426;6.934;2022-11-15T08:49:06;3.67;;;2.10;;
35026;SDS011;60696;51.426;6.934;2022-11-15T08:51:32;4.13;;;2.22;;
35026;SDS011;60696;51.426;6.934;2022-11-15T08:53:57;3.78;;;2.30;;
35026;SDS011;60696;51.426;6.934;2022-11-15T08:56:23;3.47;;;2.10;;
35026;SDS011;60696;51.426;6.934;2022-11-15T08:58:48;3.83;;;2.47;;
35026;SDS011;60696;51.426;6.934;2022-11-15T09:01:15;4.22;;;2.47;;
35026;SDS011;60696;51.426;6.934;2022-11-15T09:03:44;2.50;;;2.03;;
35026;SDS011;60696;51.426;6.934;2022-11-15T09:06:10;3.92;;;1.70;;
35026;SDS011;60696;51.426;6.934;2022-11-15T09:08:36;2.50;;;1.42;;
35026;SDS011;60696;51.426;6.934;2022-11-15T09:11:03;6.15;;;1.63;;
35026;SDS011;60696;51.426;6.934;2022-11-15T09:13:29;3.63;;;1.50;;
35026;SDS011;60696;51.426;6.934;2022-11-15T09:15:58;1.85;;;1.02;;
35026;SDS011;60696;51.426;6.934;2022-11-15T09:18:25;1.85;;;1.23;;
35026;SDS011;60696;51.426;6.934;2022-11-15T09:20:54;2.80;;;1.23;;
35026;SDS011;60696;51.426;6.934;2022-11-15T09:23:21;3.03;;;1.30;;
35026;SDS011;60696;51.426;6.934;2022-11-15T09:25:47;1.90;;;1.20;;
35026;SDS011;60696;51.426;6.934;2022-11-15T09:28:12;2.15;;;1.17;;
35026;SDS011;60696;51.426;6.934;2022-11-15T09:30:38;1.25;;;1.02;;
35026;SDS011;60696;51.426;6.934;2022-11-15T09:33:10;2.33;;;1.08;;
35026;SDS011;60696;51.426;6.934;2022-11-15T09:35:37;4.43;;;1.20;;
35026;SDS011;60696;51.426;6.934;2022-11-15T09:38:03;1.75;;;1.00;;
35026;SDS011;60696;51.426;6.934;2022-11-15T09:40:30;2.35;;;1.00;;
35026;SDS011;60696;51.426;6.934;2022-11-15T09:45:37;2.75;;;1.40;;
35026;SDS011;60696;51.426;6.934;2022-11-15T09:50:49;5.95;;;0.95;;
35026;SDS011;60696;51.426;6.934;2022-11-15T09:53:22;4.63;;;1.00;;
35026;SDS011;60696;51.426;6.934;2022-11-15T09:55:57;2.17;;;0.98;;
35026;SDS011;60696;51.426;6.934;2022-11-15T10:01:29;2.75;;;1.00;;
35026;SDS011;60696;51.426;6.934;2022-11-15T10:04:04;1.38;;;0.93;;
35026;SDS011;60696;51.426;6.934;2022-11-15T10:06:30;2.78;;;1.02;;
35026;SDS011;60696;51.426;6.934;2022-11-15T10:09:20;6.43;;;1.10;;
35026;SDS011;60696;51.426;6.934;2022-11-15T10:11:54;1.58;;;1.02;;
35026;SDS011;60696;51.426;6.934;2022-11-15T10:14:21;3.08;;;0.93;;
35026;SDS011;60696;51.426;6.934;2022-11-15T10:16:53;1.52;;;0.90;;
35026;SDS011;60696;51.426;6.934;2022-11-15T10:20:06;3.65;;;0.80;;
35026;SDS011;60696;51.426;6.934;2022-11-15T10:25:18;2.35;;;1.05;;
35026;SDS011;60696;51.426;6.934;2022-11-15T10:27:54;5.03;;;0.80;;
35026;SDS011;60696;51.426;6.934;2022-11-15T10:30:34;3.80;;;1.15;;
35026;SDS011;60696;51.426;6.934;2022-11-15T10:33:12;2.13;;;0.90;;
35026;SDS011;60696;51.426;6.934;2022-11-15T10:35:38;2.55;;;0.93;;
35026;SDS011;60696;51.426;6.934;2022-11-15T10:38:05;5.22;;;1.20;;
35026;SDS011;60696;51.426;6.934;2022-11-15T10:40:32;1.23;;;0.73;;
35026;SDS011;60696;51.426;6.934;2022-11-15T10:45:36;1.40;;;0.80;;
35026;SDS011;60696;51.426;6.934;2022-11-15T10:50:39;2.35;;;0.60;;
35026;SDS011;60696;51.426;6.934;2022-11-15T10:53:23;1.90;;;0.68;;
35026;SDS011;60696;51.426;6.934;2022-11-15T10:55:57;2.17;;;0.60;;
35026;SDS011;60696;51.426;6.934;2022-11-15T10:58:43;1.55;;;0.43;;
35026;SDS011;60696;51.426;6.934;2022-11-15T11:01:33;2.83;;;0.90;;
35026;SDS011;60696;51.426;6.934;2022-11-15T11:04:10;2.90;;;0.60;;
35026;SDS011;60696;51.426;6.934;2022-11-15T11:06:46;2.17;;;0.50;;
35026;SDS011;60696;51.426;6.934;2022-11-15T11:11:57;0.52;;;0.52;;
35026;SDS011;60696;51.426;6.934;2022-11-15T11:14:25;1.35;;;0.68;;
35026;SDS011;60696;51.426;6.934;2022-11-15T11:16:54;2.92;;;0.70;;
35026;SDS011;60696;51.426;6.934;2022-11-15T11:19:43;1.52;;;0.68;;
35026;SDS011;60696;51.426;6.934;2022-11-15T11:25:03;2.60;;;0.85;;
35026;SDS011;60696;51.426;6.934;2022-11-15T11:27:40;2.28;;;0.75;;
35026;SDS011;60696;51.426;6.934;2022-11-15T11:32:50;2.25;;;0.68;;
35026;SDS011;60696;51.426;6.934;2022-11-15T11:35:34;2.27;;;0.60;;
35026;SDS011;60696;51.426;6.934;2022-11-15T11:40:52;2.85;;;0.60;;
35026;SDS011;60696;51.426;6.934;2022-11-15T11:48:51;3.00;;;0.60;;
35026;SDS011;60696;51.426;6.934;2022-11-15T11:51:39;3.08;;;0.75;;
35026;SDS011;60696;51.426;6.934;2022-11-15T11:54:22;2.80;;;0.70;;
35026;SDS011;60696;51.426;6.934;2022-11-15T12:00:01;1.60;;;0.50;;
35026;SDS011;60696;51.426;6.934;2022-11-15T12:02:28;1.25;;;0.45;;
35026;SDS011;60696;51.426;6.934;2022-11-15T12:05:11;3.17;;;0.70;;
35026;SDS011;60696;51.426;6.934;2022-11-15T12:07:43;2.45;;;0.50;;
35026;SDS011;60696;51.426;6.934;2022-11-15T12:10:16;3.05;;;0.57;;
35026;SDS011;60696;51.426;6.934;2022-11-15T12:18:26;2.45;;;0.52;;
35026;SDS011;60696;51.426;6.934;2022-11-15T12:20:54;2.17;;;0.43;;
35026;SDS011;60696;51.426;6.934;2022-11-15T12:23:28;2.95;;;1.00;;
35026;SDS011;60696;51.426;6.934;2022-11-15T12:26:02;3.30;;;0.68;;
35026;SDS011;60696;51.426;6.934;2022-11-15T12:30:55;1.38;;;0.70;;
35026;SDS011;60696;51.426;6.934;2022-11-15T12:33:44;3.70;;;0.50;;
35026;SDS011;60696;51.426;6.934;2022-11-15T12:36:35;2.83;;;0.80;;
35026;SDS011;60696;51.426;6.934;2022-11-15T12:39:06;3.60;;;0.52;;
35026;SDS011;60696;51.426;6.934;2022-11-15T12:41:37;4.28;;;0.40;;
35026;SDS011;60696;51.426;6.934;2022-11-15T12:44:05;1.50;;;0.50;;
35026;SDS011;60696;51.426;6.934;2022-11-15T12:49:09;2.45;;;0.40;;
35026;SDS011;60696;51.426;6.934;2022-11-15T13:02:26;2.38;;;0.82;;
35026;SDS011;60696;51.426;6.934;2022-11-15T13:22:41;2.80;;;0.50;;
35026;SDS011;60696;51.426;6.934;2022-11-15T13:31:03;4.13;;;1.15;;
35026;SDS011;60696;51.426;6.934;2022-11-15T13:33:47;5.25;;;1.10;;
35026;SDS011;60696;51.426;6.934;2022-11-15T13:39:24;2.30;;;0.90;;
35026;SDS011;60696;51.426;6.934;2022-11-15T13:41:52;2.83;;;0.95;;
35026;SDS011;60696;51.426;6.934;2022-11-15T13:44:20;3.08;;;0.90;;
35026;SDS011;60696;51.426;6.934;2022-11-15T13:46:47;1.40;;;0.60;;
35026;SDS011;60696;51.426;6.934;2022-11-15T13:49:13;2.67;;;0.70;;
35026;SDS011;60696;51.426;6.934;2022-11-15T13:51:43;2.25;;;1.00;;
35026;SDS011;60696;51.426;6.934;2022-11-15T13:56:58;2.72;;;0.40;;
35026;SDS011;60696;51.426;6.934;2022-11-15T13:59:32;3.63;;;0.43;;
35026;SDS011;60696;51.426;6.934;2022-11-15T14:02:01;2.92;;;0.50;;
35026;SDS011;60696;51.426;6.934;2022-11-15T14:04:35;2.60;;;0.60;;
35026;SDS011;60696;51.426;6.934;2022-11-15T14:07:02;3.35;;;0.60;;
35026;SDS011;60696;51.426;6.934;2022-11-15T14:12:25;2.83;;;0.47;;
35026;SDS011;60696;51.426;6.934;2022-11-15T14:14:51;2.28;;;0.60;;
35026;SDS011;60696;51.426;6.934;2022-11-15T14:17:21;5.43;;;0.63;;
35026;SDS011;60696;51.426;6.934;2022-11-15T14:19:59;1.65;;;0.60;;
35026;SDS011;60696;51.426;6.934;2022-11-15T14:22:28;3.80;;;0.70;;
35026;SDS011;60696;51.426;6.934;2022-11-15T14:25:13;5.18;;;0.77;;
35026;SDS011;60696;51.426;6.934;2022-11-15T14:27:57;2.42;;;0.50;;
35026;SDS011;60696;51.426;6.934;2022-11-15T14:30:58;5.03;;;0.77;;
35026;SDS011;60696;51.426;6.934;2022-11-15T14:33:27;2.55;;;0.40;;
35026;SDS011;60696;51.426;6.934;2022-11-15T14:35:55;1.85;;;0.68;;
35026;SDS011;60696;51.426;6.934;2022-11-15T14:38:25;4.65;;;0.88;;
35026;SDS011;60696;51.426;6.934;2022-11-15T14:40:52;4.75;;;0.90;;
35026;SDS011;60696;51.426;6.934;2022-11-15T14:43:21;3.47;;;0.77;;
35026;SDS011;60696;51.426;6.934;2022-11-15T14:45:47;4.97;;;0.90;;
35026;SDS011;60696;51.426;6.934;2022-11-15T14:48:13;1.80;;;0.80;;
35026;SDS011;60696;51.426;6.934;2022-11-15T14:50:39;3.15;;;1.23;;
35026;SDS011;60696;51.426;6.934;2022-11-15T14:53:04;2.60;;;0.70;;
35026;SDS011;60696;51.426;6.934;2022-11-15T14:55:32;2.78;;;1.20;;
35026;SDS011;60696;51.426;6.934;2022-11-15T14:58:04;3.83;;;1.65;;
35026;SDS011;60696;51.426;6.934;2022-11-15T15:00:33;4.50;;;1.00;;
35026;SDS011;60696;51.426;6.934;2022-11-15T15:02:59;3.85;;;1.27;;
35026;SDS011;60696;51.426;6.934;2022-11-15T15:05:39;1.40;;;0.77;;
35026;SDS011;60696;51.426;6.934;2022-11-15T15:08:07;1.42;;;0.85;;
35026;SDS011;60696;51.426;6.934;2022-11-15T15:10:37;5.25;;;1.10;;
35026;SDS011;60696;51.426;6.934;2022-11-15T15:13:05;4.93;;;1.33;;
35026;SDS011;60696;51.426;6.934;2022-11-15T15:15:34;3.22;;;1.40;;
35026;SDS011;60696;51.426;6.934;2022-11-15T15:18:02;2.00;;;1.20;;
35026;SDS011;60696;51.426;6.934;2022-11-15T15:20:29;1.85;;;1.08;;
35026;SDS011;60696;51.426;6.934;2022-11-15T15:22:56;2.20;;;0.98;;
35026;SDS011;60696;51.426;6.934;2022-11-15T15:27:55;6.00;;;1.33;;
35026;SDS011;60696;51.426;6.934;2022-11-15T15:30:24;2.83;;;1.15;;
35026;SDS011;60696;51.426;6.934;2022-11-15T15:32:51;1.77;;;0.90;;
35026;SDS011;60696;51.426;6.934;2022-11-15T15:35:17;1.48;;;1.00;;
35026;SDS011;60696;51.426;6.934;2022-11-15T15:37:44;3.85;;;1.08;;
35026;SDS011;60696;51.426;6.934;2022-11-15T15:40:12;2.72;;;1.30;;
35026;SDS011;60696;51.426;6.934;2022-11-15T15:42:50;3.92;;;1.30;;
35026;SDS011;60696;51.426;6.934;2022-11-15T15:45:16;2.55;;;1.30;;
35026;SDS011;60696;51.426;6.934;2022-11-15T15:47:43;2.38;;;1.15;;
35026;SDS011;60696;51.426;6.934;2022-11-15T15:52:47;3.95;;;1.05;;
35026;SDS011;60696;51.426;6.934;2022-11-15T15:55:13;4.53;;;1.27;;
35026;SDS011;60696;51.426;6.934;2022-11-15T15:57:39;5.63;;;1.10;;
35026;SDS011;60696;51.426;6.934;2022-11-15T16:00:04;3.15;;;1.13;;
35026;SDS011;60696;51.426;6.934;2022-11-15T16:02:30;2.28;;;1.08;;
35026;SDS011;60696;51.426;6.934;2022-11-15T16:04:56;1.73;;;0.95;;
35026;SDS011;60696;51.426;6.934;2022-11-15T16:07:22;1.77;;;1.00;;
35026;SDS011;60696;51.426;6.934;2022-11-15T16:09:53;1.70;;;0.90;;
35026;SDS011;60696;51.426;6.934;2022-11-15T16:12:34;1.63;;;1.15;;
35026;SDS011;60696;51.426;6.934;2022-11-15T16:15:00;1.98;;;0.90;;
35026;SDS011;60696;51.426;6.934;2022-11-15T16:17:28;2.72;;;1.10;;
35026;SDS011;60696;51.426;6.934;2022-11-15T16:20:00;3.40;;;1.13;;
35026;SDS011;60696;51.426;6.934;2022-11-15T16:22:26;1.20;;;0.80;;
35026;SDS011;60696;51.426;6.934;2022-11-15T16:24:54;4.05;;;1.13;;
35026;SDS011;60696;51.426;6.934;2022-11-15T16:27:20;2.50;;;1.02;;
35026;SDS011;60696;51.426;6.934;2022-11-15T16:29:46;3.58;;;1.30;;
35026;SDS011;60696;51.426;6.934;2022-11-15T16:32:12;2.25;;;1.08;;
35026;SDS011;60696;51.426;6.934;2022-11-15T16:34:39;3.83;;;1.05;;
35026;SDS011;60696;51.426;6.934;2022-11-15T16:37:04;5.40;;;1.10;;
35026;SDS011;60696;51.426;6.934;2022-11-15T16:39:31;5.82;;;1.30;;
35026;SDS011;60696;51.426;6.934;2022-11-15T16:41:57;1.88;;;1.15;;
35026;SDS011;60696;51.426;6.934;2022-11-15T16:44:24;2.35;;;1.13;;
35026;SDS011;60696;51.426;6.934;2022-11-15T16:46:50;1.55;;;1.00;;
35026;SDS011;60696;51.426;6.934;2022-11-15T16:49:17;3.38;;;0.80;;
35026;SDS011;60696;51.426;6.934;2022-11-15T16:51:47;3.00;;;1.10;;
35026;SDS011;60696;51.426;6.934;2022-11-15T16:54:13;2.67;;;1.08;;
35026;SDS011;60696;51.426;6.934;2022-11-15T16:56:39;4.85;;;1.17;;
35026;SDS011;60696;51.426;6.934;2022-11-15T16:59:06;2.20;;;1.13;;